Time;durP1;ratioP1;P1;durP2;ratioP2;P2;SDS_P1;SDS_P2;PMS_P1;PMS_P2;Temp;Humidity;BMP_temperature;BMP_pressure;BME280_temperature;BME280_humidity;BME280_pressure;Samples;Min_cycle;Max_cycle;Signal;HPM_P1;HPM_P2
2023/11/04 00:01:21;;;;;;;2.77;1.70;;;;;;;6.06;92.64;98437.53;4915912;29;20306;-76
2023/11/04 00:03:46;;;;;;;;;;;;;;;6.16;91.75;98441.50;4922931;29;20392;-76
2023/11/04 00:06:12;;;;;;;2.28;1.20;;;;;;;6.28;90.90;98446.88;4914248;29;19919;-76
2023/11/04 00:08:40;;;;;;;;;;;;;;;6.35;90.58;98440.38;4907269;29;20032;-76
2023/11/04 00:11:06;;;;;;;2.88;1.40;;;;;;;6.39;90.31;98432.72;4904219;29;19994;-76
2023/11/04 00:13:31;;;;;;;;;;;;;;;6.46;90.16;98443.31;4908493;29;20039;-76
2023/11/04 00:15:58;;;;;;;2.90;1.20;;;;;;;6.56;89.79;98437.41;4916027;29;19919;-76
2023/11/04 00:18:24;;;;;;;3.80;1.30;;;;;;;6.58;89.47;98430.78;4909839;29;20533;-76
2023/11/04 00:20:50;;;;;;;2.83;1.33;;;;;;;6.60;89.02;98433.22;4915554;29;20042;-76
2023/11/04 00:23:15;;;;;;;;;;;;;;;6.66;88.79;98421.63;4915888;29;20028;-76
2023/11/04 00:25:40;;;;;;;1.70;1.07;;;;;;;6.72;88.43;98420.66;4915749;29;19929;-74
2023/11/04 00:28:06;;;;;;;;;;;;;;;6.77;88.10;98418.13;4928050;29;20052;-77
2023/11/04 00:30:31;;;;;;;1.83;1.27;;;;;;;6.76;88.92;98418.38;4915269;29;19919;-74
2023/11/04 00:32:59;;;;;;;;;;;;;;;6.73;89.24;98418.81;4980723;23;20055;-77
2023/11/04 00:35:25;;;;;;;1.77;1.42;;;;;;;6.77;88.40;98422.66;4952062;28;19922;-76
2023/11/04 00:37:53;;;;;;;2.20;1.27;;;;;;;6.81;88.21;98405.91;4949780;28;20027;-76
2023/11/04 00:40:20;;;;;;;2.45;1.15;;;;;;;6.91;86.95;98415.22;5233589;23;20055;-76
2023/11/04 00:42:48;;;;;;;2.05;1.45;;;;;;;6.92;87.05;98406.97;5148519;23;20429;-76
2023/11/04 00:45:14;;;;;;;2.45;1.50;;;;;;;6.97;87.47;98419.63;4970790;28;20030;-76
2023/11/04 00:47:40;;;;;;;;;;;;;;;6.96;86.71;98418.00;4969374;28;20046;-75
2023/11/04 00:50:05;;;;;;;1.35;1.25;;;;;;;6.97;86.46;98406.25;4966830;28;19924;-75
2023/11/04 00:52:31;;;;;;;;;;;;;;;6.97;87.01;98424.97;4967055;28;20027;-76
2023/11/04 00:54:56;;;;;;;1.70;1.30;;;;;;;7.00;87.18;98419.16;4993034;28;19942;-76
2023/11/04 00:57:21;;;;;;;;;;;;;;;7.00;86.80;98419.16;4973166;28;20348;-76
2023/11/04 00:59:47;;;;;;;3.23;1.80;;;;;;;7.02;86.40;98416.25;4981017;28;19922;-76
2023/11/04 01:02:12;;;;;;;;;;;;;;;7.03;86.77;98393.81;4975480;28;20301;-76
2023/11/04 01:04:37;;;;;;;2.50;1.10;;;;;;;7.04;86.13;98406.97;4964250;28;19934;-76
2023/11/04 01:07:03;;;;;;;;;;;;;;;7.01;86.45;98399.41;4970875;28;20297;-76
2023/11/04 01:09:28;;;;;;;2.97;1.60;;;;;;;7.00;86.08;98411.16;4976617;28;19945;-76
2023/11/04 01:11:53;;;;;;;;;;;;;;;7.05;86.96;98413.94;4973504;28;20043;-76
2023/11/04 01:14:21;;;;;;;1.40;1.30;;;;;;;7.08;86.51;98407.31;4963295;28;19918;-76
2023/11/04 01:16:46;;;;;;;1.52;1.30;;;;;;;7.07;85.79;98417.16;4960751;28;20102;-76
2023/11/04 01:19:16;;;;;;;;;;;;;;;7.10;86.17;98406.00;4958932;28;20427;-76
2023/11/04 01:21:44;;;;;;;1.00;1.00;;;;;;;7.15;86.20;98399.16;4967057;28;20016;-76
2023/11/04 01:24:10;;;;;;;1.30;1.20;;;;;;;7.16;85.80;98411.47;4962012;28;20093;-76
2023/11/04 01:26:38;;;;;;;;;;;;;;;7.17;85.76;98402.41;4971306;28;20039;-76
2023/11/04 01:29:04;;;;;;;1.73;1.45;;;;;;;7.17;86.28;98410.44;4965403;28;19949;-77
2023/11/04 01:31:29;;;;;;;1.15;1.02;;;;;;;7.20;85.69;98405.41;4973653;28;20027;-76
2023/11/04 01:33:55;;;;;;;;;;;;;;;7.21;85.81;98393.66;4971275;28;20050;-76
2023/11/04 01:36:20;;;;;;;1.00;0.90;;;;;;;7.24;85.50;98397.72;4973957;28;19914;-76
2023/11/04 01:38:46;;;;;;;;;;;;;;;7.23;86.31;98396.13;4975165;28;20047;-75
2023/11/04 01:41:11;;;;;;;2.83;1.10;;;;;;;7.20;86.95;98394.72;4964416;28;20732;-75
2023/11/04 01:43:38;;;;;;;;;;;;;;;7.27;86.39;98394.56;4973672;28;20455;-75
2023/11/04 01:46:09;;;;;;;1.55;1.10;;;;;;;7.25;86.32;98394.00;4966599;28;19918;-75
2023/11/04 01:48:35;;;;;;;2.83;1.20;;;;;;;7.26;86.10;98384.91;4961514;28;20046;-75
2023/11/04 01:51:01;;;;;;;3.08;1.40;;;;;;;7.27;86.11;98391.91;4956149;28;20035;-75
2023/11/04 01:53:27;;;;;;;1.10;1.00;;;;;;;7.32;86.62;98393.88;4970531;28;20569;-75
2023/11/04 01:55:52;;;;;;;;;;;;;;;7.34;86.41;98387.25;4946635;28;20123;-75
2023/11/04 01:58:17;;;;;;;1.33;1.00;;;;;;;7.33;86.26;98390.97;4967640;28;20017;-75
2023/11/04 02:00:43;;;;;;;;;;;;;;;7.27;87.14;98389.22;4957586;28;20023;-75
2023/11/04 02:03:08;;;;;;;2.38;1.17;;;;;;;7.31;86.78;98377.00;4955747;28;19925;-75
2023/11/04 02:05:33;;;;;;;;;;;;;;;7.35;86.83;98377.34;4955620;28;20034;-75
2023/11/04 02:07:59;;;;;;;1.63;0.97;;;;;;;7.29;87.16;98379.09;4972932;28;19914;-75
2023/11/04 02:10:27;;;;;;;;;;;;;;;7.34;87.46;98373.84;4955604;28;20035;-75
2023/11/04 02:12:52;;;;;;;1.42;1.23;;;;;;;7.37;86.59;98375.25;4966169;28;20096;-75
2023/11/04 02:15:20;;;;;;;;;;;;;;;7.37;86.93;98372.56;4952553;28;20455;-75
2023/11/04 02:17:46;;;;;;;1.38;1.00;;;;;;;7.39;86.76;98373.13;4969221;28;20008;-76
2023/11/04 02:20:11;;;;;;;;;;;;;;;7.38;87.35;98363.47;4961073;28;20039;-74
2023/11/04 02:22:38;;;;;;;0.90;0.80;;;;;;;7.36;86.57;98358.38;4961772;28;20342;-76
2023/11/04 02:25:05;;;;;;;0.90;0.90;;;;;;;7.41;86.23;98366.50;5004932;23;20058;-77
2023/11/04 02:27:30;;;;;;;;;;;;;;;7.41;86.50;98353.09;4915517;29;20028;-76
2023/11/04 02:29:58;;;;;;;1.27;0.80;;;;;;;7.44;86.74;98360.66;4915437;29;19926;-74
2023/11/04 02:32:24;;;;;;;1.73;1.20;;;;;;;7.44;86.95;98349.97;4915287;29;20038;-74
2023/11/04 02:34:49;;;;;;;;;;;;;;;7.35;87.19;98353.25;4907427;29;20036;-74
2023/11/04 02:37:17;;;;;;;0.87;0.83;;;;;;;7.42;87.05;98335.19;4906971;29;20244;-74
2023/11/04 02:39:43;;;;;;;1.33;1.10;;;;;;;7.46;86.65;98347.06;4913927;29;20119;-76
2023/11/04 02:42:09;;;;;;;;;;;;;;;7.46;87.32;98336.34;4917179;29;20106;-74
2023/11/04 02:44:34;;;;;;;2.08;1.10;;;;;;;7.49;86.60;98351.13;4914172;29;20006;-74
2023/11/04 02:46:59;;;;;;;;;;;;;;;7.47;87.37;98348.69;4916619;29;20107;-74
2023/11/04 02:49:25;;;;;;;1.10;0.93;;;;;;;7.50;86.75;98347.38;4914923;29;19997;-74
2023/11/04 02:51:50;;;;;;;;;;;;;;;7.52;87.44;98351.44;4916493;29;20036;-74
2023/11/04 02:54:16;;;;;;;1.13;1.00;;;;;;;7.47;87.71;98343.34;4911405;29;20026;-74
2023/11/04 02:56:41;;;;;;;;;;;;;;;7.50;87.74;98340.16;4908835;29;20438;-75
2023/11/04 02:59:06;;;;;;;1.07;0.90;;;;;;;7.47;87.89;98331.81;4908792;29;19974;-75
2023/11/04 03:04:08;;;;;;;2.15;1.00;;;;;;;7.41;88.89;98341.59;5136686;23;19933;-74
2023/11/04 03:06:33;;;;;;;1.67;1.02;;;;;;;7.40;88.88;98335.44;4952653;28;20114;-74
2023/11/04 03:08:58;;;;;;;;;;;;;;;7.42;88.65;98330.66;4953161;28;20053;-74
2023/11/04 03:11:24;;;;;;;1.10;1.00;;;;;;;7.41;88.70;98326.34;4951863;28;19970;-74
2023/11/04 03:13:49;;;;;;;;;;;;;;;7.43;88.52;98321.56;4952943;28;20039;-74
2023/11/04 03:16:19;;;;;;;1.73;1.10;;;;;;;7.39;89.36;98325.78;4961057;28;19958;-74
2023/11/04 03:18:44;;;;;;;1.17;1.08;;;;;;;7.39;88.62;98328.47;4948720;28;20031;-74
2023/11/04 03:21:10;;;;;;;;;;;;;;;7.40;89.46;98322.06;4950568;28;20118;-74
2023/11/04 03:23:35;;;;;;;1.70;1.00;;;;;;;7.34;89.27;98323.00;4950774;28;19918;-74
2023/11/04 03:26:00;;;;;;;;;;;;;;;7.40;88.76;98311.34;4953048;28;20353;-73
2023/11/04 03:28:26;;;;;;;1.70;1.00;;;;;;;7.35;89.30;98303.22;4948499;28;19929;-74
2023/11/04 03:30:52;;;;;;;;;;;;;;;7.43;88.90;98302.81;4932656;29;20365;-74
2023/11/04 03:33:18;;;;;;;2.05;1.00;;;;;;;7.42;88.32;98309.22;4948448;28;19922;-74
2023/11/04 03:35:44;;;;;;;;;;;;;;;7.43;88.56;98305.50;4954738;28;20028;-74
2023/11/04 03:38:10;;;;;;;0.80;0.80;;;;;;;7.40;88.26;98305.19;4945560;28;20037;-75
2023/11/04 03:40:36;;;;;;;;;;;;;;;7.47;88.20;98297.00;4956140;28;20067;-75
2023/11/04 03:43:04;;;;;;;1.67;1.10;;;;;;;7.49;88.66;98301.06;4953069;28;20370;-74
2023/11/04 03:45:29;;;;;;;1.25;1.15;;;;;;;7.48;88.68;98301.31;4952362;28;20063;-75
2023/11/04 03:47:55;;;;;;;;;;;;;;;7.51;88.21;98292.78;4952836;28;20077;-75
2023/11/04 03:50:20;;;;;;;2.38;1.00;;;;;;;7.54;88.06;98289.66;4952980;28;19918;-74
2023/11/04 03:52:45;;;;;;;;;;;;;;;7.51;89.22;98293.59;4953092;28;20049;-75
2023/11/04 03:55:10;;;;;;;2.13;1.07;;;;;;;7.48;89.55;98291.44;4952447;28;19922;-75
2023/11/04 03:57:39;;;;;;;1.77;1.23;;;;;;;7.53;89.35;98290.69;4939329;28;20031;-75
2023/11/04 04:00:05;;;;;;;1.20;1.10;;;;;;;7.55;90.23;98285.91;4952896;28;20110;-75
2023/11/04 04:02:30;;;;;;;1.02;0.95;;;;;;;7.51;91.12;98268.72;4950579;28;20086;-75
2023/11/04 04:04:56;;;;;;;;;;;;;;;7.47;91.03;98281.78;4954266;28;20035;-75
2023/11/04 04:07:21;;;;;;;1.70;1.10;;;;;;;7.48;91.47;98280.72;4952043;28;19942;-75
2023/11/04 04:09:46;;;;;;;;;;;;;;;7.44;91.79;98272.34;4952340;28;20027;-74
2023/11/04 04:12:12;;;;;;;1.80;1.27;;;;;;;7.40;91.11;98271.22;4951232;28;19927;-75
2023/11/04 04:14:40;;;;;;;;;;;;;;;7.39;92.72;98266.09;4940855;28;20035;-75
2023/11/04 04:17:05;;;;;;;0.85;0.80;;;;;;;7.35;94.15;98260.41;4950947;28;19934;-75
2023/11/04 04:19:30;;;;;;;;;;;;;;;7.27;95.66;98264.28;4952627;28;20031;-75
2023/11/04 04:21:56;;;;;;;2.33;1.03;;;;;;;7.21;95.44;98257.19;4946895;28;19919;-75
2023/11/04 04:24:21;;;;;;;;;;;;;;;7.16;96.40;98259.78;4952656;28;20779;-75
2023/11/04 04:26:47;;;;;;;1.80;0.90;;;;;;;7.13;97.53;98263.75;4951241;29;19941;-75
2023/11/04 04:29:12;;;;;;;;;;;;;;;7.11;97.59;98249.78;4952708;28;20027;-75
2023/11/04 04:31:38;;;;;;;1.20;1.00;;;;;;;7.11;97.90;98249.78;4954570;28;20009;-75
2023/11/04 04:34:06;;;;;;;;;;;;;;;7.09;98.09;98251.88;4953781;28;20026;-75
2023/11/04 04:36:31;;;;;;;3.88;1.10;;;;;;;7.11;98.37;98241.75;4958233;28;19918;-78
2023/11/04 04:39:02;;;;;;;;;;;;;;;7.09;98.67;98246.53;4956862;28;20023;-76
2023/11/04 04:41:28;;;;;;;1.50;1.10;;;;;;;7.11;98.54;98249.00;4951793;28;20289;-75
2023/11/04 04:43:53;;;;;;;;;;;;;;;7.07;99.54;98243.28;4949472;28;20030;-75
2023/11/04 04:46:21;;;;;;;1.20;1.10;;;;;;;7.04;100.00;98246.47;4952750;28;19918;-75
2023/11/04 04:48:47;;;;;;;1.67;1.20;;;;;;;7.01;100.00;98244.25;4951134;28;20325;-75
2023/11/04 04:51:12;;;;;;;;;;;;;;;6.98;100.00;98248.19;4947624;28;20024;-75
2023/11/04 04:53:37;;;;;;;;;;;;;;;6.90;100.00;98247.75;4941334;28;20405;-75
2023/11/04 04:56:03;;;;;;;;;;;;;;;7.01;100.00;98244.25;4951483;28;19942;-75
2023/11/04 04:58:28;;;;;;;;;;;;;;;7.11;100.00;98236.41;4942325;28;20030;-75
2023/11/04 05:00:53;;;;;;;;;;;;;;;7.04;100.00;98250.97;4950949;28;20366;-75
2023/11/04 05:03:19;;;;;;;;;;;;;;;7.05;100.00;98239.22;4952793;28;20407;-76
2023/11/04 05:05:49;;;;;;;;;;;;;;;6.95;100.00;98232.66;4955482;28;20304;-77
2023/11/04 05:08:15;;;;;;;;;;;;;;;6.86;100.00;98238.63;4951432;28;19922;-75
2023/11/04 05:10:40;;;;;;;;;;;;;;;6.82;100.00;98225.72;4940661;28;20406;-75
2023/11/04 05:13:05;;;;;;;;;;;;;;;6.79;100.00;98231.53;4949781;28;20432;-76
2023/11/04 05:15:30;;;;;;;;;;;;;;;6.85;100.00;98224.41;4953770;28;20308;-75
2023/11/04 05:17:56;;;;;;;;;;;;;;;6.89;100.00;98227.41;4951554;28;20009;-76
2023/11/04 05:20:22;;;;;;;;;;;;;;;6.90;100.00;98229.03;4953875;28;19914;-75
2023/11/04 05:22:47;;;;;;;;;;;;;;;6.91;100.00;98220.81;4940263;28;19933;-76
2023/11/04 05:25:13;;;;;;;;;;;;;;;6.88;100.00;98229.28;4962217;28;19918;-75
2023/11/04 05:27:39;;;;;;;;;;;;;;;6.89;100.00;98228.25;4955276;28;19977;-76
2023/11/04 05:30:07;;;;;;;;;;;;;;;6.90;100.00;98223.69;4950444;28;20355;-76
2023/11/04 05:32:33;;;;;;;;;;;;;;;6.85;100.00;98216.38;4954107;28;20065;-75
2023/11/04 05:35:01;;;;;;;;;;;;;;;6.83;100.00;98215.81;4948826;28;20366;-76
2023/11/04 05:37:27;;;;;;;;;;;;;;;6.85;100.00;98213.72;4949552;28;19918;-75
2023/11/04 05:39:52;;;;;;;;;;;;;;;6.82;100.00;98206.16;4947469;28;19992;-75
2023/11/04 05:42:17;;;;;;;;;;;;;;;6.76;100.00;98205.25;4945668;28;19922;-76
2023/11/04 05:44:42;;;;;;;;;;;;;;;6.78;100.00;98211.19;4954653;28;19918;-76
2023/11/04 05:47:08;;;;;;;;;;;;;;;6.77;100.00;98204.22;4954924;28;20334;-75
2023/11/04 05:49:33;;;;;;;;;;;;;;;6.76;100.00;98197.25;4955907;28;20315;-76
2023/11/04 05:51:58;;;;;;;;;;;;;;;6.81;100.00;98197.34;4954198;28;19918;-75
2023/11/04 05:54:29;;;;;;;;;;;;;;;6.79;100.00;98194.09;4948959;28;19950;-76
2023/11/04 05:56:55;;;;;;;;;;;;;;;6.81;100.00;98191.16;4949831;28;20037;-77
2023/11/04 05:59:22;;;;;;;;;;;;;;;6.80;100.00;98195.72;4950180;28;20009;-75
2023/11/04 06:01:50;;;;;;;;;;;;;;;6.81;100.00;98185.81;4967976;23;19923;-78
2023/11/04 06:04:16;;;;;;;;;;;;;;;6.81;100.00;98191.16;4953543;28;20413;-78
2023/11/04 06:06:41;;;;;;;;;;;;;;;6.93;100.00;98189.28;4952802;28;19934;-78
2023/11/04 06:09:06;;;;;;;;;;;;;;;6.92;100.00;98187.66;4953875;28;20014;-78
2023/11/04 06:14:27;;;;;;;;;;;;;;;6.93;100.00;98172.41;5245824;23;19965;-78
2023/11/04 06:17:09;;;;;;;;;;;;;;;7.02;100.00;98178.19;4933439;29;19982;-78
2023/11/04 06:39:12;;;;;;;;;;;;;;;7.22;100.00;98142.97;4955326;23;19926;-78
2023/11/04 06:42:02;;;;;;;;;;;;;;;7.22;100.00;98148.31;4947910;28;19919;-79
2023/11/04 06:44:27;;;;;;;;;;;;;;;7.15;100.00;98136.94;4944288;28;20362;-78
2023/11/04 07:02:21;;;;;;;;;;;;;;;7.29;100.00;98122.19;4945751;28;20290;-79
2023/11/04 07:08:05;;;;;;;;;;;;;;;7.47;100.00;98125.69;4951759;28;19925;-79
2023/11/04 07:11:16;;;;;;;;;;;;;;;7.51;100.00;98108.09;4942290;28;19957;-78
2023/11/04 07:13:16;;;;;;;;;;;;;;;7.81;100.00;98122.97;4938642;28;19995;-79
2023/11/04 07:18:46;;;;;;;;;;;;;;;8.58;97.03;98107.88;5581043;23;20291;-77
2023/11/04 07:21:14;;;;;;;;;;;;;;;9.01;94.00;98107.22;4959812;28;19946;-78
2023/11/04 07:24:08;;;;;;;;;;;;;;;10.02;87.74;98104.72;4959635;28;20326;-78
2023/11/04 07:27:06;;;;;;;;;;;;;;;10.39;83.96;98105.69;4953400;28;19972;-77
2023/11/04 07:35:58;;;;;;;;;;;;;;;8.87;90.09;98106.84;4897662;29;20013;-82
2023/11/04 07:38:33;;;;;;;;;;;;;;;8.78;90.64;98103.78;4949271;28;19929;-76
2023/11/04 07:47:07;;;;;;;;;;;;;;;8.62;91.75;98109.00;5055466;23;19927;-77
2023/11/04 07:49:34;;;;;;;;;;;;;;;8.63;91.94;98105.28;4937564;29;19919;-76
2023/11/04 07:54:40;;;;;;;;;;;;;;;8.51;91.83;98088.50;5643848;23;19934;-76
2023/11/04 07:57:12;;;;;;;;;;;;;;;8.59;91.49;98079.19;4909616;29;20018;-76
2023/11/04 07:59:37;;;;;;;;;;;;;;;9.51;87.33;98081.84;4911266;29;19954;-75
2023/11/04 08:02:08;;;;;;;;;;;;;;;10.01;84.04;98079.69;4910790;29;20305;-77
2023/11/04 08:04:39;;;;;;;;;;;;;;;9.98;83.34;98074.84;4911450;29;20101;-77
2023/11/04 08:07:32;;;;;;;;;;;;;;;9.78;83.46;98078.25;4915692;29;19919;-76
2023/11/04 08:13:00;;;;;;;;;;;;;;;9.12;86.95;98062.50;5119057;23;19986;-75
2023/11/04 08:15:25;;;;;;;;;;;;;;;9.01;87.41;98058.91;4949038;28;19918;-76
2023/11/04 08:18:00;;;;;;;;;;;;;;;8.80;87.96;98059.56;4946002;28;19980;-75
2023/11/04 08:20:25;;;;;;;;;;;;;;;8.70;88.35;98064.84;4957282;23;19918;-75
2023/11/04 08:22:51;;;;;;;;;;;;;;;8.61;88.78;98051.06;4956405;28;19926;-76
2023/11/04 08:25:16;;;;;;;;;;;;;;;8.63;88.34;98040.09;4953902;28;20314;-76
2023/11/04 08:27:41;;;;;;;;;;;;;;;8.71;88.26;98038.81;4962399;28;20275;-76
2023/11/04 08:30:07;;;;;;;;;;;;;;;8.74;88.96;98022.22;4964083;28;20293;-79
2023/11/04 08:32:32;;;;;;;;;;;;;;;8.99;88.36;98018.94;4965105;28;19914;-76
2023/11/04 08:34:58;;;;;;;;;;;;;;;9.25;86.99;98011.88;4956002;28;20098;-78
2023/11/04 08:37:24;;;;;;;;;;;;;;;9.46;85.88;98011.19;4956081;28;19957;-75
2023/11/04 08:39:50;;;;;;;;;;;;;;;9.42;85.44;98005.53;4960770;28;19918;-75
2023/11/04 08:42:15;;;;;;;;;;;;;;;9.47;85.54;97997.50;4973945;28;19953;-75
2023/11/04 08:44:41;;;;;;;;;;;;;;;9.53;85.12;97996.44;4955643;28;19980;-75
2023/11/04 08:47:06;;;;;;;;;;;;;;;9.44;84.62;97998.03;4964809;28;20319;-77
2023/11/04 08:49:32;;;;;;;;;;;;;;;9.52;84.68;97988.66;4963064;28;20283;-75
2023/11/04 08:52:00;;;;;;;;;;;;;;;9.56;84.53;97995.94;4961262;28;20021;-78
2023/11/04 08:54:25;;;;;;;;;;;;;;;9.51;84.05;97977.13;4963988;28;19977;-77
2023/11/04 08:56:51;;;;;;;;;;;;;;;9.58;84.14;97981.44;4974048;28;20371;-78
2023/11/04 08:59:16;;;;;;;;;;;;;;;9.60;83.77;97990.03;4954866;28;19976;-78
2023/11/04 09:01:42;;;;;;;;;;;;;;;9.65;83.68;97976.66;4970081;23;19929;-78
2023/11/04 09:04:08;;;;;;;;;;;;;;;9.50;83.42;97980.88;4958895;28;19949;-77
2023/11/04 09:06:33;;;;;;;;;;;;;;;9.61;83.80;97983.59;4958473;28;19925;-77
2023/11/04 09:09:00;;;;;;;;;;;;;;;9.60;83.98;97973.94;4967455;28;19914;-77
2023/11/04 09:11:25;;;;;;;;;;;;;;;9.54;83.58;97976.56;4959281;28;20410;-76
2023/11/04 09:13:51;;;;;;;;;;;;;;;9.39;85.66;97974.66;4979708;28;19929;-76
2023/11/04 09:16:16;;;;;;;;;;;;;;;9.31;85.60;97977.00;4966588;28;19926;-76
2023/11/04 09:21:16;;;;;;;;;;;;;;;9.36;85.40;97974.34;6113188;23;21453;-77
2023/11/04 09:23:42;;;;;;;;;;;;;;;9.39;85.54;97969.28;4934738;29;20339;-76
2023/11/04 09:26:09;;;;;;;;;;;;;;;9.42;85.72;97967.13;4936659;29;20320;-77
2023/11/04 09:28:35;;;;;;;;;;;;;;;9.51;86.01;97965.56;4935936;29;19938;-76
2023/11/04 09:31:01;;;;;;;;;;;;;;;9.61;84.52;97962.94;4940042;29;19918;-76
2023/11/04 09:33:26;;;;;;;;;;;;;;;9.58;84.56;97958.09;4934085;29;19925;-77
2023/11/04 09:35:52;;;;;;;;;;;;;;;9.52;84.25;97949.19;4935693;29;20355;-76
2023/11/04 09:38:17;;;;;;;;;;;;;;;9.47;85.01;97945.66;4935520;29;19918;-76
2023/11/04 09:40:42;;;;;;;;;;;;;;;9.46;85.28;97944.88;4935090;29;20367;-76
2023/11/04 09:43:07;;;;;;;;;;;;;;;9.58;85.16;97935.78;4920119;29;20286;-76
2023/11/04 09:45:33;;;;;;;;;;;;;;;9.78;85.12;97940.44;4935501;29;20488;-75
2023/11/04 09:47:58;;;;;;;;;;;;;;;10.05;83.69;97929.50;4935795;29;20379;-76
2023/11/04 09:50:23;;;;;;;;;;;;;;;10.18;82.43;97933.53;4918705;29;20386;-76
2023/11/04 09:52:50;;;;;;;;;;;;;;;10.35;81.74;97933.28;4934923;29;19919;-76
2023/11/04 09:55:15;;;;;;;;;;;;;;;10.43;81.80;97929.28;4929202;29;19929;-76
2023/11/04 09:57:41;;;;;;;;;;;;;;;10.39;82.36;97912.91;4916704;29;20344;-75
2023/11/04 10:00:06;;;;;;;;;;;;;;;10.54;80.99;97912.06;4916526;29;20352;-76
2023/11/04 10:02:31;;;;;;;;;;;;;;;10.90;80.82;97914.72;4932705;29;19927;-75
2023/11/04 10:04:58;;;;;;;;;;;;;;;11.04;78.99;97909.59;4931150;29;19918;-76
2023/11/04 10:07:23;;;;;;;;;;;;;;;11.07;79.03;97900.97;4936564;29;19933;-75
2023/11/04 10:09:48;;;;;;;;;;;;;;;11.21;79.07;97895.00;4940186;29;19926;-75
2023/11/04 10:12:16;;;;;;;;;;;;;;;11.11;78.34;97889.66;4944744;29;20071;-75
2023/11/04 10:20:11;;;;;;;;;;;;;;;11.06;80.39;97868.94;5738597;23;19923;-75
2023/11/04 10:35:56;;;;;;;;;;;;;;;11.51;76.96;97817.84;5139849;23;20375;-76
2023/11/04 10:44:39;;;;;;;;;;;;;;;11.53;77.30;97788.75;4910418;29;19930;-76
2023/11/04 10:47:31;;;;;;;;;;;;;;;11.70;76.05;97779.47;4907990;29;20371;-76
2023/11/04 10:49:59;;;;;;;;;;;;;;;11.81;77.02;97781.81;4935962;23;19942;-77
2023/11/04 10:52:26;;;;;;;;;;;;;;;11.58;76.22;97764.47;4931938;29;19929;-77
2023/11/04 10:55:11;;;;;;;;;;;;;;;11.77;74.73;97732.25;4909606;29;19915;-78
2023/11/04 10:57:38;;;;;;;;;;;;;;;11.69;74.91;97767.91;4923509;29;20013;-78
2023/11/04 11:00:13;;;;;;;;;;;;;;;11.57;73.49;97743.19;4912676;29;20014;-78
2023/11/04 11:02:44;;;;;;;;;;;;;;;11.38;73.41;97741.97;4913651;29;19922;-79
2023/11/04 11:05:13;;;;;;;;;;;;;;;11.31;74.50;97749.53;4911238;29;19983;-77
2023/11/04 11:07:40;;;;;;;;;;;;;;;11.38;75.04;97730.41;4924197;29;19923;-77
2023/11/04 11:10:05;;;;;;;;;;;;;;;11.58;74.69;97734.00;4915820;29;19919;-78
2023/11/04 11:12:32;;;;;;;;;;;;;;;11.54;73.18;97723.00;4933218;29;19919;-78
2023/11/04 11:14:57;;;;;;;;;;;;;;;11.63;72.68;97715.94;4920651;29;19993;-78
2023/11/04 11:17:32;;;;;;;;;;;;;;;11.39;73.13;97715.81;4928872;29;20022;-79
2023/11/04 11:19:57;;;;;;;;;;;;;;;11.29;74.42;97705.97;4930279;29;19957;-79
2023/11/04 11:22:25;;;;;;;;;;;;;;;11.27;74.82;97694.66;4929690;29;19915;-79
2023/11/04 11:24:57;;;;;;;;;;;;;;;11.28;73.56;97688.19;4915881;29;20013;-78
2023/11/04 11:27:22;;;;;;;;;;;;;;;11.23;73.99;97682.81;4907701;29;19915;-78
2023/11/04 11:29:48;;;;;;;;;;;;;;;11.18;74.20;97675.59;4913046;29;20367;-78
2023/11/04 11:32:13;;;;;;;;;;;;;;;11.27;73.37;97662.34;4912271;29;20352;-79
2023/11/04 11:34:51;;;;;;;;;;;;;;;11.08;74.67;97667.56;4914903;29;19965;-79
2023/11/04 11:37:18;;;;;;;;;;;;;;;11.07;73.97;97665.97;4922223;29;20327;-78
2023/11/04 11:39:43;;;;;;;;;;;;;;;11.01;73.96;97651.72;4915281;29;19997;-77
2023/11/04 11:42:08;;;;;;;;;;;;;;;11.00;74.11;97638.56;4910665;29;19922;-78
2023/11/04 11:44:34;;;;;;;;;;;;;;;10.86;74.37;97644.53;4913693;29;20016;-79
2023/11/04 11:46:59;;;;;;;;;;;;;;;10.88;75.17;97638.91;4925845;29;20010;-80
2023/11/04 11:49:24;;;;;;;;;;;;;;;10.87;74.74;97627.31;4896443;29;19966;-80
2023/11/04 11:51:50;;;;;;;;;;;;;;;10.82;74.85;97615.78;4886323;29;19935;-80
2023/11/04 11:57:20;;;;;;;;;;;;;;;10.67;75.24;97608.63;4963176;23;19922;-81
2023/11/04 12:03:00;;;;;;;;;;;;;;;10.60;75.93;97587.38;4955701;28;19921;-83
2023/11/04 12:05:27;;;;;;;;;;;;;;;10.56;75.59;97592.53;4950455;28;19926;-82
2023/11/04 12:08:10;;;;;;;;;;;;;;;10.58;75.37;97582.28;4951269;28;19925;-81
2023/11/04 12:14:07;;;;;;;;;;;;;;;10.56;76.59;97576.38;4925777;29;20437;-81
2023/11/04 12:16:35;;;;;;;;;;;;;;;10.45;75.82;97574.84;4919774;29;20336;-81
2023/11/04 12:19:00;;;;;;;;;;;;;;;10.30;77.49;97570.31;4926843;29;19926;-81
2023/11/04 12:22:00;;;;;;;;;;;;;;;10.27;78.90;97557.41;4907032;29;19939;-81
2023/11/04 12:45:56;;;;;;;;;;;;;;;9.15;90.85;97503.78;4950881;28;19928;-82
2023/11/04 12:48:22;;;;;;;;;;;;;;;9.14;91.39;97488.75;4956845;28;19914;-82
2023/11/04 12:53:51;;;;;;;;;;;;;;;9.16;89.37;97478.53;5464621;23;19945;-81
2023/11/04 12:56:17;;;;;;;;;;;;;;;9.22;89.26;97474.78;4975012;28;20008;-81
2023/11/04 12:58:42;;;;;;;;;;;;;;;9.17;89.91;97456.00;4946627;28;20005;-80
2023/11/04 13:01:08;;;;;;;;;;;;;;;9.15;91.57;97458.97;4967252;28;19953;-81
2023/11/04 13:03:33;;;;;;;;;;;;;;;9.10;90.00;97450.91;4981381;28;19910;-81
2023/11/04 13:06:01;;;;;;;;;;;;;;;9.04;91.78;97435.91;4972637;28;19921;-81
2023/11/04 13:08:27;;;;;;;;;;;;;;;9.03;92.17;97419.00;4966113;28;19919;-81
2023/11/04 13:10:52;;;;;;;;;;;;;;;9.03;92.62;97416.31;4958321;28;20140;-82
2023/11/04 13:13:17;;;;;;;;;;;;;;;8.94;93.55;97415.25;4961368;28;19921;-82
2023/11/04 13:48:31;;;;;;;;;;;;;;;7.84;100.00;97308.34;4962780;23;20166;-86
2023/11/04 13:59:40;;;;;;;;;;;;;;;7.85;100.00;97301.94;4946746;28;19918;-85
2023/11/04 14:02:06;;;;;;;;;;;;;;;7.85;100.00;97299.25;4949363;28;19918;-85
2023/11/04 14:04:32;;;;;;;;;;;;;;;7.82;100.00;97303.28;4943877;28;19953;-85
2023/11/04 14:07:16;;;;;;;;;;;;;;;7.81;100.00;97292.81;4953069;28;19966;-85
2023/11/04 14:10:19;;;;;;;;;;;;;;;7.79;100.00;97278.88;4954306;28;19977;-84
2023/11/04 14:12:44;;;;;;;;;;;;;;;7.76;100.00;97276.78;4954418;28;20057;-85
2023/11/04 14:15:10;;;;;;;;;;;;;;;7.73;100.00;97262.84;4954937;28;19922;-85
2023/11/04 14:25:23;;;;;;;;;;;;;;;7.52;100.00;97256.66;5961272;23;19905;-85
2023/11/04 14:27:48;;;;;;;;;;;;;;;7.57;100.00;97250.53;4942543;28;19925;-84
2023/11/04 14:30:13;;;;;;;;;;;;;;;7.53;100.00;97244.09;4949329;28;20044;-84
2023/11/04 14:32:39;;;;;;;;;;;;;;;7.59;100.00;97243.00;4970696;28;19980;-84
2023/11/04 14:35:05;;;;;;;;;;;;;;;7.54;100.00;97238.44;4965672;28;20367;-84
2023/11/04 14:37:30;;;;;;;;;;;;;;;7.51;100.00;97238.19;4965948;28;20321;-83
2023/11/04 14:39:55;;;;;;;;;;;;;;;7.44;100.00;97220.50;4945624;28;19919;-83
2023/11/04 14:42:24;;;;;;;;;;;;;;;7.44;100.00;97215.16;4965938;28;19925;-82
2023/11/04 14:44:49;;;;;;;;;;;;;;;7.47;100.00;97213.84;4961461;28;19984;-83
2023/11/04 14:47:15;;;;;;;;;;;;;;;7.48;100.00;97209.28;4944800;28;19918;-86
2023/11/04 14:56:09;;;;;;;;;;;;;;;7.43;100.00;97202.84;4934400;29;20275;-84
2023/11/04 14:58:35;;;;;;;;;;;;;;;7.46;100.00;97198.84;4932507;29;20563;-85
2023/11/04 15:01:01;;;;;;;;;;;;;;;7.48;100.00;97195.91;4933014;29;19915;-85
2023/11/04 15:03:26;;;;;;;;;;;;;;;7.47;100.00;97189.75;4933340;29;20356;-85
2023/11/04 15:06:01;;;;;;;;;;;;;;;7.42;100.00;97195.88;4933348;29;19915;-85
2023/11/04 15:08:26;;;;;;;;;;;;;;;7.43;100.00;97181.44;4931989;29;20415;-84
2023/11/04 15:10:52;;;;;;;;;;;;;;;7.41;100.00;97180.09;4933559;29;19918;-85
2023/11/04 15:13:24;;;;;;;;;;;;;;;7.38;100.00;97173.44;4928309;29;20336;-85
2023/11/04 15:19:17;;;;;;;;;;;;;;;7.36;100.00;97167.53;4933281;29;19937;-85
2023/11/04 15:22:10;;;;;;;;;;;;;;;7.47;100.00;97170.19;4913868;29;19915;-84
2023/11/04 15:24:35;;;;;;;;;;;;;;;7.51;100.00;97166.72;4931920;29;20013;-86
2023/11/04 15:27:04;;;;;;;;;;;;;;;7.49;100.00;97160.84;4933007;29;20439;-85
2023/11/04 15:29:29;;;;;;;;;;;;;;;7.51;100.00;97149.88;4932017;29;19929;-85
2023/11/04 15:32:00;;;;;;;;;;;;;;;7.51;100.00;97123.91;4925634;29;20001;-86
2023/11/04 15:34:25;;;;;;;;;;;;;;;7.53;100.00;97129.00;4926414;29;19918;-86
2023/11/04 15:37:08;;;;;;;;;;;;;;;7.51;100.00;97131.13;4923223;29;20308;-85
2023/11/04 15:39:39;;;;;;;;;;;;;;;7.58;100.00;97123.66;4900529;29;19915;-85